sensor_id;sensor_type;location;lat;lon;timestamp;pressure;altitude;pressure_sealevel;temperature;humidity
55277;BME280;41136;51.478;-2.610;2024-02-21T00:01:28;100991.12;;;12.53;100.00
55277;BME280;41136;51.478;-2.610;2024-02-21T00:03:54;100984.56;;;13.29;100.00
55277;BME280;41136;51.478;-2.610;2024-02-21T00:06:19;100979.26;;;12.83;100.00
55277;BME280;41136;51.478;-2.610;2024-02-21T00:08:44;100977.03;;;13.15;100.00
55277;BME280;41136;51.478;-2.610;2024-02-21T00:11:10;100968.72;;;12.61;100.00
55277;BME280;41136;51.478;-2.610;2024-02-21T00:13:36;100965.50;;;13.18;100.00
55277;BME280;41136;51.478;-2.610;2024-02-21T00:16:02;100962.52;;;13.03;100.00
55277;BME280;41136;51.478;-2.610;2024-02-21T00:18:27;100959.20;;;13.17;100.00
55277;BME280;41136;51.478;-2.610;2024-02-21T00:20:53;100952.00;;;12.95;100.00
55277;BME280;41136;51.478;-2.610;2024-02-21T00:23:18;100942.06;;;12.68;100.00
55277;BME280;41136;51.478;-2.610;2024-02-21T00:25:43;100940.59;;;12.86;100.00
55277;BME280;41136;51.478;-2.610;2024-02-21T00:28:09;100937.01;;;12.10;100.00
55277;BME280;41136;51.478;-2.610;2024-02-21T00:30:34;100933.40;;;12.48;100.00
55277;BME280;41136;51.478;-2.610;2024-02-21T00:32:59;100926.24;;;13.18;100.00
55277;BME280;41136;51.478;-2.610;2024-02-21T00:35:25;100920.98;;;13.42;100.00
55277;BME280;41136;51.478;-2.610;2024-02-21T00:37:51;100915.44;;;12.66;100.00
55277;BME280;41136;51.478;-2.610;2024-02-21T00:40:16;100906.35;;;12.84;100.00
55277;BME280;41136;51.478;-2.610;2024-02-21T00:42:41;100902.45;;;12.76;100.00
55277;BME280;41136;51.478;-2.610;2024-02-21T00:45:08;100894.39;;;12.68;100.00
55277;BME280;41136;51.478;-2.610;2024-02-21T00:47:32;100888.24;;;12.68;100.00
55277;BME280;41136;51.478;-2.610;2024-02-21T00:49:57;100879.00;;;12.91;100.00
55277;BME280;41136;51.478;-2.610;2024-02-21T00:52:23;100872.65;;;13.06;100.00
55277;BME280;41136;51.478;-2.610;2024-02-21T00:54:48;100870.15;;;13.14;100.00
55277;BME280;41136;51.478;-2.610;2024-02-21T00:57:13;100869.46;;;12.51;100.00
55277;BME280;41136;51.478;-2.610;2024-02-21T00:59:39;100868.16;;;12.76;100.00
55277;BME280;41136;51.478;-2.610;2024-02-21T01:02:04;100866.22;;;12.95;100.00
55277;BME280;41136;51.478;-2.610;2024-02-21T01:04:30;100864.31;;;12.58;100.00
55277;BME280;41136;51.478;-2.610;2024-02-21T01:06:55;100863.06;;;12.68;100.00
55277;BME280;41136;51.478;-2.610;2024-02-21T01:09:20;100851.42;;;12.96;100.00
55277;BME280;41136;51.478;-2.610;2024-02-21T01:11:46;100844.72;;;13.03;100.00
55277;BME280;41136;51.478;-2.610;2024-02-21T01:14:11;100836.61;;;13.13;100.00
55277;BME280;41136;51.478;-2.610;2024-02-21T01:16:36;100833.05;;;12.70;100.00
55277;BME280;41136;51.478;-2.610;2024-02-21T01:19:02;100828.74;;;13.09;100.00
55277;BME280;41136;51.478;-2.610;2024-02-21T01:21:27;100827.80;;;13.21;100.00
55277;BME280;41136;51.478;-2.610;2024-02-21T01:23:52;100819.04;;;13.03;100.00
55277;BME280;41136;51.478;-2.610;2024-02-21T01:26:18;100810.99;;;13.13;100.00
55277;BME280;41136;51.478;-2.610;2024-02-21T01:28:43;100790.61;;;13.42;100.00
55277;BME280;41136;51.478;-2.610;2024-02-21T01:31:08;100786.35;;;13.50;100.00
55277;BME280;41136;51.478;-2.610;2024-02-21T01:33:34;100783.89;;;12.54;100.00
55277;BME280;41136;51.478;-2.610;2024-02-21T01:35:59;100776.85;;;13.17;100.00
55277;BME280;41136;51.478;-2.610;2024-02-21T01:38:24;100768.12;;;13.25;100.00
55277;BME280;41136;51.478;-2.610;2024-02-21T01:40:50;100760.52;;;12.65;100.00
55277;BME280;41136;51.478;-2.610;2024-02-21T01:43:16;100757.20;;;12.90;100.00
55277;BME280;41136;51.478;-2.610;2024-02-21T01:45:40;100759.76;;;12.66;100.00
55277;BME280;41136;51.478;-2.610;2024-02-21T01:48:06;100749.77;;;12.78;100.00
55277;BME280;41136;51.478;-2.610;2024-02-21T01:50:31;100745.02;;;12.73;100.00
55277;BME280;41136;51.478;-2.610;2024-02-21T01:52:56;100737.53;;;12.33;100.00
55277;BME280;41136;51.478;-2.610;2024-02-21T01:55:22;100733.70;;;12.54;100.00
55277;BME280;41136;51.478;-2.610;2024-02-21T01:57:47;100728.33;;;12.17;100.00
55277;BME280;41136;51.478;-2.610;2024-02-21T02:00:14;100725.58;;;12.16;100.00
55277;BME280;41136;51.478;-2.610;2024-02-21T02:02:38;100726.91;;;12.67;100.00
55277;BME280;41136;51.478;-2.610;2024-02-21T02:05:04;100730.00;;;12.61;100.00
55277;BME280;41136;51.478;-2.610;2024-02-21T02:07:29;100732.21;;;12.58;100.00
55277;BME280;41136;51.478;-2.610;2024-02-21T02:09:55;100727.90;;;12.42;100.00
55277;BME280;41136;51.478;-2.610;2024-02-21T02:12:20;100726.96;;;12.35;100.00
55277;BME280;41136;51.478;-2.610;2024-02-21T02:14:45;100724.99;;;12.66;100.00
55277;BME280;41136;51.478;-2.610;2024-02-21T02:17:11;100719.27;;;11.68;100.00
55277;BME280;41136;51.478;-2.610;2024-02-21T02:19:36;100717.89;;;12.56;100.00
55277;BME280;41136;51.478;-2.610;2024-02-21T02:22:09;100707.87;;;11.86;100.00
55277;BME280;41136;51.478;-2.610;2024-02-21T02:24:27;100706.07;;;12.64;100.00
55277;BME280;41136;51.478;-2.610;2024-02-21T02:26:52;100698.40;;;12.51;100.00
55277;BME280;41136;51.478;-2.610;2024-02-21T02:29:17;100699.98;;;11.81;100.00
55277;BME280;41136;51.478;-2.610;2024-02-21T02:31:43;100696.61;;;12.07;100.00
55277;BME280;41136;51.478;-2.610;2024-02-21T02:34:08;100685.33;;;12.20;100.00
55277;BME280;41136;51.478;-2.610;2024-02-21T02:36:33;100679.78;;;12.06;100.00
55277;BME280;41136;51.478;-2.610;2024-02-21T02:38:59;100664.08;;;11.90;100.00
55277;BME280;41136;51.478;-2.610;2024-02-21T02:41:24;100660.97;;;11.79;100.00
55277;BME280;41136;51.478;-2.610;2024-02-21T02:43:49;100660.69;;;11.69;100.00
55277;BME280;41136;51.478;-2.610;2024-02-21T02:46:15;100646.17;;;11.76;100.00
55277;BME280;41136;51.478;-2.610;2024-02-21T02:48:40;100649.44;;;11.22;100.00
55277;BME280;41136;51.478;-2.610;2024-02-21T02:51:06;100640.66;;;11.79;100.00
55277;BME280;41136;51.478;-2.610;2024-02-21T02:53:31;100630.54;;;12.07;100.00
55277;BME280;41136;51.478;-2.610;2024-02-21T02:55:57;100630.04;;;11.75;100.00
55277;BME280;41136;51.478;-2.610;2024-02-21T02:58:22;100627.39;;;11.32;100.00
55277;BME280;41136;51.478;-2.610;2024-02-21T03:00:47;100618.03;;;11.91;100.00
55277;BME280;41136;51.478;-2.610;2024-02-21T03:03:12;100613.09;;;11.79;100.00
55277;BME280;41136;51.478;-2.610;2024-02-21T03:05:38;100610.61;;;11.85;100.00
55277;BME280;41136;51.478;-2.610;2024-02-21T03:08:04;100609.14;;;12.28;100.00
55277;BME280;41136;51.478;-2.610;2024-02-21T03:10:29;100598.42;;;11.30;100.00
55277;BME280;41136;51.478;-2.610;2024-02-21T03:12:54;100592.24;;;12.26;100.00
55277;BME280;41136;51.478;-2.610;2024-02-21T03:15:20;100581.97;;;11.26;100.00
55277;BME280;41136;51.478;-2.610;2024-02-21T03:17:45;100573.07;;;11.52;100.00
55277;BME280;41136;51.478;-2.610;2024-02-21T03:20:11;100571.70;;;11.97;100.00
55277;BME280;41136;51.478;-2.610;2024-02-21T03:22:36;100567.93;;;11.01;100.00
55277;BME280;41136;51.478;-2.610;2024-02-21T03:25:01;100561.62;;;11.41;100.00
55277;BME280;41136;51.478;-2.610;2024-02-21T03:27:26;100546.21;;;11.84;100.00
55277;BME280;41136;51.478;-2.610;2024-02-21T03:29:52;100539.75;;;11.75;100.00
55277;BME280;41136;51.478;-2.610;2024-02-21T03:32:17;100528.84;;;12.05;100.00
55277;BME280;41136;51.478;-2.610;2024-02-21T03:34:43;100524.68;;;12.36;100.00
55277;BME280;41136;51.478;-2.610;2024-02-21T03:37:08;100525.45;;;11.86;100.00
55277;BME280;41136;51.478;-2.610;2024-02-21T03:39:34;100511.22;;;11.87;100.00
55277;BME280;41136;51.478;-2.610;2024-02-21T03:41:59;100503.23;;;11.62;100.00
55277;BME280;41136;51.478;-2.610;2024-02-21T03:44:25;100499.60;;;11.79;100.00
55277;BME280;41136;51.478;-2.610;2024-02-21T03:46:50;100490.42;;;11.49;100.00
55277;BME280;41136;51.478;-2.610;2024-02-21T03:49:15;100485.79;;;11.84;100.00
55277;BME280;41136;51.478;-2.610;2024-02-21T03:51:41;100468.93;;;11.19;100.00
55277;BME280;41136;51.478;-2.610;2024-02-21T03:54:06;100464.93;;;10.58;100.00
55277;BME280;41136;51.478;-2.610;2024-02-21T03:56:31;100460.12;;;10.95;100.00
55277;BME280;41136;51.478;-2.610;2024-02-21T03:58:58;100449.04;;;10.98;100.00
55277;BME280;41136;51.478;-2.610;2024-02-21T04:04:56;100433.38;;;10.31;100.00
55277;BME280;41136;51.478;-2.610;2024-02-21T04:07:21;100434.85;;;10.49;100.00
55277;BME280;41136;51.478;-2.610;2024-02-21T04:09:46;100419.69;;;11.15;100.00
55277;BME280;41136;51.478;-2.610;2024-02-21T04:12:12;100412.57;;;11.08;100.00
55277;BME280;41136;51.478;-2.610;2024-02-21T04:14:37;100410.71;;;12.20;100.00
55277;BME280;41136;51.478;-2.610;2024-02-21T04:17:02;100409.95;;;11.73;100.00
55277;BME280;41136;51.478;-2.610;2024-02-21T04:19:28;100398.28;;;11.40;100.00
55277;BME280;41136;51.478;-2.610;2024-02-21T04:21:53;100383.70;;;10.90;100.00
55277;BME280;41136;51.478;-2.610;2024-02-21T04:24:18;100378.92;;;11.03;100.00
55277;BME280;41136;51.478;-2.610;2024-02-21T04:26:44;100374.06;;;11.83;100.00
55277;BME280;41136;51.478;-2.610;2024-02-21T04:29:09;100359.24;;;10.84;100.00
55277;BME280;41136;51.478;-2.610;2024-02-21T04:31:34;100349.86;;;10.71;100.00
55277;BME280;41136;51.478;-2.610;2024-02-21T04:34:00;100345.20;;;11.47;100.00
55277;BME280;41136;51.478;-2.610;2024-02-21T04:36:25;100334.55;;;11.91;100.00
55277;BME280;41136;51.478;-2.610;2024-02-21T04:38:50;100325.52;;;11.30;100.00
55277;BME280;41136;51.478;-2.610;2024-02-21T04:41:15;100315.62;;;11.01;100.00
55277;BME280;41136;51.478;-2.610;2024-02-21T04:43:41;100317.48;;;11.50;100.00
55277;BME280;41136;51.478;-2.610;2024-02-21T04:46:06;100316.93;;;11.11;100.00
55277;BME280;41136;51.478;-2.610;2024-02-21T04:48:31;100304.60;;;11.67;100.00
55277;BME280;41136;51.478;-2.610;2024-02-21T04:50:57;100288.14;;;11.68;100.00
55277;BME280;41136;51.478;-2.610;2024-02-21T04:53:22;100275.60;;;11.22;100.00
55277;BME280;41136;51.478;-2.610;2024-02-21T04:55:48;100274.93;;;11.51;100.00
55277;BME280;41136;51.478;-2.610;2024-02-21T04:58:13;100269.71;;;11.62;100.00
55277;BME280;41136;51.478;-2.610;2024-02-21T05:00:38;100262.56;;;11.79;100.00
55277;BME280;41136;51.478;-2.610;2024-02-21T05:03:04;100252.42;;;11.54;100.00
55277;BME280;41136;51.478;-2.610;2024-02-21T05:05:29;100250.91;;;11.48;100.00
55277;BME280;41136;51.478;-2.610;2024-02-21T05:07:54;100243.66;;;11.34;100.00
55277;BME280;41136;51.478;-2.610;2024-02-21T05:10:19;100224.19;;;10.94;100.00
55277;BME280;41136;51.478;-2.610;2024-02-21T05:12:45;100221.26;;;11.12;100.00
55277;BME280;41136;51.478;-2.610;2024-02-21T05:15:10;100207.89;;;11.19;100.00
55277;BME280;41136;51.478;-2.610;2024-02-21T05:17:36;100194.74;;;11.00;100.00
55277;BME280;41136;51.478;-2.610;2024-02-21T05:20:01;100189.03;;;11.01;100.00
55277;BME280;41136;51.478;-2.610;2024-02-21T05:22:26;100176.57;;;10.60;100.00
55277;BME280;41136;51.478;-2.610;2024-02-21T05:24:52;100181.06;;;10.58;100.00
55277;BME280;41136;51.478;-2.610;2024-02-21T05:27:17;100175.09;;;10.51;100.00
55277;BME280;41136;51.478;-2.610;2024-02-21T05:29:42;100180.44;;;10.29;100.00
55277;BME280;41136;51.478;-2.610;2024-02-21T05:32:08;100176.66;;;10.50;100.00
55277;BME280;41136;51.478;-2.610;2024-02-21T05:34:33;100164.13;;;10.71;100.00
55277;BME280;41136;51.478;-2.610;2024-02-21T05:36:58;100156.84;;;10.64;100.00
55277;BME280;41136;51.478;-2.610;2024-02-21T05:39:24;100147.19;;;10.69;100.00
55277;BME280;41136;51.478;-2.610;2024-02-21T05:41:49;100135.44;;;10.01;100.00
55277;BME280;41136;51.478;-2.610;2024-02-21T05:44:14;100125.70;;;10.40;100.00
55277;BME280;41136;51.478;-2.610;2024-02-21T05:46:40;100120.81;;;9.85;100.00
55277;BME280;41136;51.478;-2.610;2024-02-21T05:49:05;100119.67;;;10.17;100.00
55277;BME280;41136;51.478;-2.610;2024-02-21T05:51:32;100113.32;;;9.99;100.00
55277;BME280;41136;51.478;-2.610;2024-02-21T05:53:56;100114.30;;;10.25;100.00
55277;BME280;41136;51.478;-2.610;2024-02-21T05:56:21;100099.00;;;10.70;100.00
55277;BME280;41136;51.478;-2.610;2024-02-21T05:58:46;100098.85;;;10.64;100.00
55277;BME280;41136;51.478;-2.610;2024-02-21T06:01:12;100083.05;;;10.49;100.00
55277;BME280;41136;51.478;-2.610;2024-02-21T06:03:37;100080.26;;;9.86;100.00
55277;BME280;41136;51.478;-2.610;2024-02-21T06:06:03;100078.01;;;9.86;100.00
55277;BME280;41136;51.478;-2.610;2024-02-21T06:08:28;100073.01;;;9.78;100.00
55277;BME280;41136;51.478;-2.610;2024-02-21T06:10:53;100074.65;;;10.63;100.00
55277;BME280;41136;51.478;-2.610;2024-02-21T06:13:18;100071.38;;;10.32;100.00
55277;BME280;41136;51.478;-2.610;2024-02-21T06:15:44;100062.96;;;10.35;100.00
55277;BME280;41136;51.478;-2.610;2024-02-21T06:18:09;100060.45;;;9.85;100.00
55277;BME280;41136;51.478;-2.610;2024-02-21T06:20:34;100047.48;;;10.13;100.00
55277;BME280;41136;51.478;-2.610;2024-02-21T06:23:00;100039.79;;;9.99;100.00
55277;BME280;41136;51.478;-2.610;2024-02-21T06:25:25;100030.30;;;10.17;100.00
55277;BME280;41136;51.478;-2.610;2024-02-21T06:27:50;100023.91;;;9.68;100.00
55277;BME280;41136;51.478;-2.610;2024-02-21T06:30:16;100016.34;;;10.21;100.00
55277;BME280;41136;51.478;-2.610;2024-02-21T06:32:41;100013.12;;;9.96;100.00
55277;BME280;41136;51.478;-2.610;2024-02-21T06:35:07;100004.11;;;10.64;100.00
55277;BME280;41136;51.478;-2.610;2024-02-21T06:37:32;99991.52;;;9.63;100.00
55277;BME280;41136;51.478;-2.610;2024-02-21T06:39:57;99978.92;;;10.14;100.00
55277;BME280;41136;51.478;-2.610;2024-02-21T06:42:24;99976.62;;;10.09;100.00
55277;BME280;41136;51.478;-2.610;2024-02-21T06:44:48;99966.54;;;10.00;100.00
55277;BME280;41136;51.478;-2.610;2024-02-21T06:47:13;99964.17;;;9.79;100.00
55277;BME280;41136;51.478;-2.610;2024-02-21T06:49:39;99961.87;;;10.07;100.00
55277;BME280;41136;51.478;-2.610;2024-02-21T06:52:04;99954.93;;;10.23;100.00
55277;BME280;41136;51.478;-2.610;2024-02-21T06:54:29;99936.03;;;10.11;100.00
55277;BME280;41136;51.478;-2.610;2024-02-21T06:56:55;99931.28;;;10.29;100.00
55277;BME280;41136;51.478;-2.610;2024-02-21T06:59:20;99931.03;;;10.17;100.00
55277;BME280;41136;51.478;-2.610;2024-02-21T07:01:47;99918.92;;;9.90;100.00
55277;BME280;41136;51.478;-2.610;2024-02-21T07:04:11;99917.97;;;9.89;100.00
55277;BME280;41136;51.478;-2.610;2024-02-21T07:06:36;99899.85;;;10.28;100.00
55277;BME280;41136;51.478;-2.610;2024-02-21T07:09:01;99879.88;;;10.59;100.00
55277;BME280;41136;51.478;-2.610;2024-02-21T07:11:27;99874.45;;;10.29;100.00
55277;BME280;41136;51.478;-2.610;2024-02-21T07:13:52;99877.35;;;10.44;100.00
55277;BME280;41136;51.478;-2.610;2024-02-21T07:16:17;99866.34;;;10.02;100.00
55277;BME280;41136;51.478;-2.610;2024-02-21T07:18:43;99868.13;;;9.98;100.00
55277;BME280;41136;51.478;-2.610;2024-02-21T07:21:08;99860.96;;;10.22;100.00
55277;BME280;41136;51.478;-2.610;2024-02-21T07:23:33;99848.72;;;10.41;100.00
55277;BME280;41136;51.478;-2.610;2024-02-21T07:25:59;99843.33;;;9.99;100.00
55277;BME280;41136;51.478;-2.610;2024-02-21T07:28:25;99829.89;;;10.29;100.00
55277;BME280;41136;51.478;-2.610;2024-02-21T07:30:50;99831.23;;;10.54;100.00
55277;BME280;41136;51.478;-2.610;2024-02-21T07:33:15;99814.96;;;9.96;100.00
55277;BME280;41136;51.478;-2.610;2024-02-21T07:35:41;99807.31;;;10.19;100.00
55277;BME280;41136;51.478;-2.610;2024-02-21T07:38:06;99805.38;;;9.99;100.00
55277;BME280;41136;51.478;-2.610;2024-02-21T07:40:31;99803.05;;;9.66;100.00
55277;BME280;41136;51.478;-2.610;2024-02-21T07:42:57;99801.83;;;9.62;100.00
55277;BME280;41136;51.478;-2.610;2024-02-21T07:45:22;99791.53;;;9.91;100.00
55277;BME280;41136;51.478;-2.610;2024-02-21T07:47:47;99781.71;;;10.43;100.00
55277;BME280;41136;51.478;-2.610;2024-02-21T07:50:12;99788.17;;;9.98;100.00
55277;BME280;41136;51.478;-2.610;2024-02-21T07:52:38;99781.63;;;10.27;100.00
55277;BME280;41136;51.478;-2.610;2024-02-21T07:55:04;99781.55;;;10.67;100.00
55277;BME280;41136;51.478;-2.610;2024-02-21T07:57:29;99772.06;;;10.41;100.00
55277;BME280;41136;51.478;-2.610;2024-02-21T07:59:54;99774.50;;;9.78;100.00
55277;BME280;41136;51.478;-2.610;2024-02-21T08:02:19;99772.55;;;10.28;100.00
55277;BME280;41136;51.478;-2.610;2024-02-21T08:04:44;99760.44;;;10.32;100.00
55277;BME280;41136;51.478;-2.610;2024-02-21T08:07:10;99760.07;;;10.28;100.00
55277;BME280;41136;51.478;-2.610;2024-02-21T08:09:36;99755.44;;;10.54;100.00
55277;BME280;41136;51.478;-2.610;2024-02-21T08:12:00;99754.40;;;10.22;100.00
55277;BME280;41136;51.478;-2.610;2024-02-21T08:14:26;99729.95;;;10.32;100.00
55277;BME280;41136;51.478;-2.610;2024-02-21T08:16:52;99735.75;;;10.29;100.00
55277;BME280;41136;51.478;-2.610;2024-02-21T08:19:16;99731.05;;;9.78;100.00
55277;BME280;41136;51.478;-2.610;2024-02-21T08:21:42;99730.78;;;9.12;100.00
55277;BME280;41136;51.478;-2.610;2024-02-21T08:24:07;99725.19;;;8.97;100.00
55277;BME280;41136;51.478;-2.610;2024-02-21T08:26:32;99708.20;;;9.31;100.00
55277;BME280;41136;51.478;-2.610;2024-02-21T08:28:58;99700.79;;;9.84;100.00
55277;BME280;41136;51.478;-2.610;2024-02-21T08:31:23;99698.15;;;10.31;100.00
55277;BME280;41136;51.478;-2.610;2024-02-21T08:33:48;99687.88;;;10.68;100.00
55277;BME280;41136;51.478;-2.610;2024-02-21T08:36:17;99669.02;;;9.99;100.00
55277;BME280;41136;51.478;-2.610;2024-02-21T08:38:39;99678.19;;;9.64;100.00
55277;BME280;41136;51.478;-2.610;2024-02-21T08:41:05;99673.14;;;10.43;100.00
55277;BME280;41136;51.478;-2.610;2024-02-21T08:43:30;99668.74;;;10.57;100.00
55277;BME280;41136;51.478;-2.610;2024-02-21T08:45:55;99661.27;;;10.00;100.00
55277;BME280;41136;51.478;-2.610;2024-02-21T08:48:20;99654.41;;;10.63;100.00
55277;BME280;41136;51.478;-2.610;2024-02-21T08:50:46;99637.30;;;10.27;100.00
55277;BME280;41136;51.478;-2.610;2024-02-21T08:53:11;99642.37;;;10.73;100.00
55277;BME280;41136;51.478;-2.610;2024-02-21T08:55:36;99625.98;;;9.99;100.00
55277;BME280;41136;51.478;-2.610;2024-02-21T08:58:02;99623.93;;;9.95;100.00
55277;BME280;41136;51.478;-2.610;2024-02-21T09:00:27;99611.81;;;9.87;100.00
55277;BME280;41136;51.478;-2.610;2024-02-21T09:02:53;99610.18;;;9.84;100.00
55277;BME280;41136;51.478;-2.610;2024-02-21T09:05:18;99613.96;;;9.87;100.00
55277;BME280;41136;51.478;-2.610;2024-02-21T09:07:43;99599.03;;;10.09;100.00
55277;BME280;41136;51.478;-2.610;2024-02-21T09:10:09;99599.99;;;10.02;100.00
55277;BME280;41136;51.478;-2.610;2024-02-21T09:12:34;99587.73;;;10.10;100.00
55277;BME280;41136;51.478;-2.610;2024-02-21T09:14:59;99584.46;;;10.02;100.00
55277;BME280;41136;51.478;-2.610;2024-02-21T09:17:24;99574.35;;;10.26;100.00
55277;BME280;41136;51.478;-2.610;2024-02-21T09:19:49;99575.70;;;9.80;100.00
55277;BME280;41136;51.478;-2.610;2024-02-21T09:22:15;99580.32;;;10.32;100.00
55277;BME280;41136;51.478;-2.610;2024-02-21T09:24:40;99569.46;;;10.81;100.00
55277;BME280;41136;51.478;-2.610;2024-02-21T09:27:05;99562.63;;;10.64;100.00
55277;BME280;41136;51.478;-2.610;2024-02-21T09:29:31;99553.59;;;9.87;100.00
55277;BME280;41136;51.478;-2.610;2024-02-21T09:31:56;99545.04;;;10.26;100.00
55277;BME280;41136;51.478;-2.610;2024-02-21T09:34:21;99544.13;;;10.42;100.00
55277;BME280;41136;51.478;-2.610;2024-02-21T09:36:47;99535.70;;;10.40;100.00
55277;BME280;41136;51.478;-2.610;2024-02-21T09:39:12;99528.57;;;10.69;100.00
55277;BME280;41136;51.478;-2.610;2024-02-21T09:41:42;99518.95;;;10.04;100.00
55277;BME280;41136;51.478;-2.610;2024-02-21T09:44:03;99517.51;;;10.37;100.00
55277;BME280;41136;51.478;-2.610;2024-02-21T09:46:49;99512.57;;;10.65;100.00
55277;BME280;41136;51.478;-2.610;2024-02-21T09:49:04;99506.10;;;10.79;100.00
55277;BME280;41136;51.478;-2.610;2024-02-21T09:51:19;99499.89;;;11.27;100.00
55277;BME280;41136;51.478;-2.610;2024-02-21T09:53:44;99486.36;;;11.32;100.00
55277;BME280;41136;51.478;-2.610;2024-02-21T09:56:09;99483.75;;;11.27;100.00
55277;BME280;41136;51.478;-2.610;2024-02-21T09:58:35;99480.12;;;11.51;100.00
55277;BME280;41136;51.478;-2.610;2024-02-21T10:01:00;99465.96;;;10.66;100.00
55277;BME280;41136;51.478;-2.610;2024-02-21T10:03:25;99466.07;;;10.65;100.00
55277;BME280;41136;51.478;-2.610;2024-02-21T10:05:51;99451.63;;;10.54;100.00
55277;BME280;41136;51.478;-2.610;2024-02-21T10:08:16;99452.94;;;10.91;100.00
55277;BME280;41136;51.478;-2.610;2024-02-21T10:10:43;99440.95;;;10.22;100.00
55277;BME280;41136;51.478;-2.610;2024-02-21T10:13:06;99436.03;;;10.42;100.00
55277;BME280;41136;51.478;-2.610;2024-02-21T10:15:32;99436.40;;;10.57;100.00
55277;BME280;41136;51.478;-2.610;2024-02-21T10:17:59;99429.15;;;10.33;100.00
55277;BME280;41136;51.478;-2.610;2024-02-21T10:20:23;99429.62;;;10.54;100.00
55277;BME280;41136;51.478;-2.610;2024-02-21T10:22:48;99417.28;;;10.39;100.00
55277;BME280;41136;51.478;-2.610;2024-02-21T10:25:13;99409.21;;;11.04;100.00
55277;BME280;41136;51.478;-2.610;2024-02-21T10:27:39;99410.77;;;10.53;100.00
55277;BME280;41136;51.478;-2.610;2024-02-21T10:30:07;99402.22;;;10.97;100.00
55277;BME280;41136;51.478;-2.610;2024-02-21T10:32:29;99397.75;;;11.17;100.00
55277;BME280;41136;51.478;-2.610;2024-02-21T10:35:01;99397.87;;;10.93;100.00
55277;BME280;41136;51.478;-2.610;2024-02-21T10:37:21;99384.54;;;10.62;100.00
55277;BME280;41136;51.478;-2.610;2024-02-21T10:39:45;99378.94;;;10.98;100.00
55277;BME280;41136;51.478;-2.610;2024-02-21T10:42:11;99368.21;;;10.57;100.00
55277;BME280;41136;51.478;-2.610;2024-02-21T10:44:38;99365.07;;;10.68;100.00
55277;BME280;41136;51.478;-2.610;2024-02-21T10:47:02;99356.83;;;10.73;100.00
55277;BME280;41136;51.478;-2.610;2024-02-21T10:49:27;99357.88;;;10.59;100.00
55277;BME280;41136;51.478;-2.610;2024-02-21T10:51:55;99340.68;;;10.64;100.00
55277;BME280;41136;51.478;-2.610;2024-02-21T10:54:29;99324.87;;;10.43;100.00
55277;BME280;41136;51.478;-2.610;2024-02-21T10:56:43;99324.51;;;10.27;100.00
55277;BME280;41136;51.478;-2.610;2024-02-21T10:59:08;99332.94;;;10.60;100.00
55277;BME280;41136;51.478;-2.610;2024-02-21T11:01:33;99327.62;;;10.94;100.00
55277;BME280;41136;51.478;-2.610;2024-02-21T11:04:01;99319.32;;;10.49;100.00
55277;BME280;41136;51.478;-2.610;2024-02-21T11:06:25;99325.31;;;11.02;100.00
55277;BME280;41136;51.478;-2.610;2024-02-21T11:11:14;99316.74;;;10.58;100.00
55277;BME280;41136;51.478;-2.610;2024-02-21T11:13:40;99309.25;;;11.09;100.00
55277;BME280;41136;51.478;-2.610;2024-02-21T11:16:07;99300.78;;;10.97;100.00
55277;BME280;41136;51.478;-2.610;2024-02-21T11:18:30;99292.26;;;10.60;100.00
55277;BME280;41136;51.478;-2.610;2024-02-21T11:20:55;99281.30;;;10.39;100.00
55277;BME280;41136;51.478;-2.610;2024-02-21T11:23:25;99276.93;;;10.69;100.00
55277;BME280;41136;51.478;-2.610;2024-02-21T11:25:46;99265.03;;;10.06;100.00
55277;BME280;41136;51.478;-2.610;2024-02-21T11:28:11;99262.05;;;10.90;100.00
55277;BME280;41136;51.478;-2.610;2024-02-21T11:30:36;99251.38;;;11.31;100.00
55277;BME280;41136;51.478;-2.610;2024-02-21T11:33:02;99252.05;;;10.96;100.00
55277;BME280;41136;51.478;-2.610;2024-02-21T11:35:31;99240.40;;;11.32;100.00
55277;BME280;41136;51.478;-2.610;2024-02-21T11:37:52;99232.39;;;11.10;100.00
55277;BME280;41136;51.478;-2.610;2024-02-21T11:40:18;99204.50;;;10.81;100.00
55277;BME280;41136;51.478;-2.610;2024-02-21T11:42:43;99219.60;;;10.92;100.00
55277;BME280;41136;51.478;-2.610;2024-02-21T11:45:09;99221.95;;;10.81;100.00
55277;BME280;41136;51.478;-2.610;2024-02-21T11:47:33;99227.31;;;11.15;100.00
55277;BME280;41136;51.478;-2.610;2024-02-21T11:49:59;99201.97;;;11.10;100.00
55277;BME280;41136;51.478;-2.610;2024-02-21T11:52:25;99212.44;;;11.34;100.00
55277;BME280;41136;51.478;-2.610;2024-02-21T11:54:50;99191.15;;;11.49;100.00
55277;BME280;41136;51.478;-2.610;2024-02-21T11:57:15;99179.18;;;11.12;100.00
55277;BME280;41136;51.478;-2.610;2024-02-21T11:59:40;99197.78;;;10.86;100.00
55277;BME280;41136;51.478;-2.610;2024-02-21T12:02:06;99197.67;;;11.14;100.00
55277;BME280;41136;51.478;-2.610;2024-02-21T12:04:31;99191.18;;;10.95;100.00
55277;BME280;41136;51.478;-2.610;2024-02-21T12:06:57;99185.41;;;11.24;100.00
55277;BME280;41136;51.478;-2.610;2024-02-21T12:09:23;99153.37;;;11.10;100.00
55277;BME280;41136;51.478;-2.610;2024-02-21T12:14:16;99173.05;;;10.59;100.00
55277;BME280;41136;51.478;-2.610;2024-02-21T12:16:37;99155.69;;;11.34;100.00
55277;BME280;41136;51.478;-2.610;2024-02-21T12:19:03;99149.96;;;11.56;100.00
55277;BME280;41136;51.478;-2.610;2024-02-21T12:21:30;99145.70;;;11.81;100.00
55277;BME280;41136;51.478;-2.610;2024-02-21T12:23:53;99127.76;;;11.56;100.00
55277;BME280;41136;51.478;-2.610;2024-02-21T12:26:18;99103.41;;;11.56;100.00
55277;BME280;41136;51.478;-2.610;2024-02-21T12:28:44;99117.93;;;11.81;100.00
55277;BME280;41136;51.478;-2.610;2024-02-21T12:31:09;99113.10;;;12.16;100.00
55277;BME280;41136;51.478;-2.610;2024-02-21T12:33:34;99108.69;;;12.43;100.00